sensor_id;sensor_type;location;lat;lon;timestamp;P1;durP1;ratioP1;P2;durP2;ratioP2
50549;SDS011;36505;52.512;13.460;2022-12-07T00:01:07;13.15;;;6.50;;
50549;SDS011;36505;52.512;13.460;2022-12-07T00:03:53;15.55;;;6.65;;
50549;SDS011;36505;52.512;13.460;2022-12-07T00:06:25;14.80;;;7.50;;
50549;SDS011;36505;52.512;13.460;2022-12-07T00:08:51;12.90;;;6.68;;
50549;SDS011;36505;52.512;13.460;2022-12-07T00:11:20;13.27;;;7.32;;
50549;SDS011;36505;52.512;13.460;2022-12-07T00:13:47;14.07;;;6.38;;
50549;SDS011;36505;52.512;13.460;2022-12-07T00:16:18;13.15;;;7.22;;
50549;SDS011;36505;52.512;13.460;2022-12-07T00:18:45;13.52;;;7.70;;
50549;SDS011;36505;52.512;13.460;2022-12-07T00:23:45;13.68;;;7.60;;
50549;SDS011;36505;52.512;13.460;2022-12-07T00:28:58;12.20;;;6.53;;
50549;SDS011;36505;52.512;13.460;2022-12-07T00:31:29;12.25;;;6.38;;
50549;SDS011;36505;52.512;13.460;2022-12-07T00:33:58;16.35;;;7.07;;
50549;SDS011;36505;52.512;13.460;2022-12-07T00:36:24;12.70;;;6.57;;
50549;SDS011;36505;52.512;13.460;2022-12-07T00:38:50;11.35;;;6.22;;
50549;SDS011;36505;52.512;13.460;2022-12-07T00:41:17;14.15;;;7.47;;
50549;SDS011;36505;52.512;13.460;2022-12-07T00:43:46;10.40;;;6.05;;
50549;SDS011;36505;52.512;13.460;2022-12-07T00:46:13;11.15;;;6.32;;
50549;SDS011;36505;52.512;13.460;2022-12-07T00:48:40;14.18;;;6.50;;
50549;SDS011;36505;52.512;13.460;2022-12-07T00:51:07;10.60;;;5.63;;
50549;SDS011;36505;52.512;13.460;2022-12-07T00:53:35;12.13;;;6.18;;
50549;SDS011;36505;52.512;13.460;2022-12-07T00:56:05;12.15;;;6.82;;
50549;SDS011;36505;52.512;13.460;2022-12-07T00:58:36;13.43;;;6.10;;
50549;SDS011;36505;52.512;13.460;2022-12-07T01:01:02;11.15;;;6.70;;
50549;SDS011;36505;52.512;13.460;2022-12-07T01:03:28;8.95;;;5.22;;
50549;SDS011;36505;52.512;13.460;2022-12-07T01:05:54;12.98;;;6.05;;
50549;SDS011;36505;52.512;13.460;2022-12-07T01:08:21;11.25;;;6.32;;
50549;SDS011;36505;52.512;13.460;2022-12-07T01:10:48;9.90;;;6.32;;
50549;SDS011;36505;52.512;13.460;2022-12-07T01:13:14;10.50;;;6.07;;
50549;SDS011;36505;52.512;13.460;2022-12-07T01:15:41;12.40;;;6.68;;
50549;SDS011;36505;52.512;13.460;2022-12-07T01:18:07;12.05;;;6.20;;
50549;SDS011;36505;52.512;13.460;2022-12-07T01:20:33;11.07;;;6.40;;
50549;SDS011;36505;52.512;13.460;2022-12-07T01:22:59;13.20;;;8.02;;
50549;SDS011;36505;52.512;13.460;2022-12-07T01:25:24;10.75;;;6.15;;
50549;SDS011;36505;52.512;13.460;2022-12-07T01:27:49;10.27;;;5.88;;
50549;SDS011;36505;52.512;13.460;2022-12-07T01:30:15;10.43;;;6.10;;
50549;SDS011;36505;52.512;13.460;2022-12-07T01:32:40;10.82;;;6.18;;
50549;SDS011;36505;52.512;13.460;2022-12-07T01:35:06;9.40;;;5.57;;
50549;SDS011;36505;52.512;13.460;2022-12-07T01:37:35;11.80;;;6.40;;
50549;SDS011;36505;52.512;13.460;2022-12-07T01:40:02;9.55;;;5.57;;
50549;SDS011;36505;52.512;13.460;2022-12-07T01:42:28;10.18;;;6.07;;
50549;SDS011;36505;52.512;13.460;2022-12-07T01:48:17;10.27;;;5.00;;
50549;SDS011;36505;52.512;13.460;2022-12-07T01:50:47;9.18;;;5.25;;
50549;SDS011;36505;52.512;13.460;2022-12-07T01:53:15;9.00;;;5.20;;
50549;SDS011;36505;52.512;13.460;2022-12-07T01:55:42;10.02;;;5.88;;
50549;SDS011;36505;52.512;13.460;2022-12-07T01:58:10;8.15;;;4.80;;
50549;SDS011;36505;52.512;13.460;2022-12-07T02:00:37;8.75;;;4.78;;
50549;SDS011;36505;52.512;13.460;2022-12-07T02:03:04;8.20;;;4.30;;
50549;SDS011;36505;52.512;13.460;2022-12-07T02:05:35;8.98;;;4.47;;
50549;SDS011;36505;52.512;13.460;2022-12-07T02:08:03;7.53;;;4.78;;
50549;SDS011;36505;52.512;13.460;2022-12-07T02:10:30;7.80;;;4.78;;
50549;SDS011;36505;52.512;13.460;2022-12-07T02:12:58;8.27;;;4.32;;
50549;SDS011;36505;52.512;13.460;2022-12-07T02:16:07;7.10;;;4.63;;
50549;SDS011;36505;52.512;13.460;2022-12-07T02:24:03;5.90;;;4.10;;
50549;SDS011;36505;52.512;13.460;2022-12-07T02:26:53;8.85;;;4.32;;
50549;SDS011;36505;52.512;13.460;2022-12-07T02:29:28;6.75;;;4.00;;
50549;SDS011;36505;52.512;13.460;2022-12-07T02:42:37;7.15;;;4.32;;
50549;SDS011;36505;52.512;13.460;2022-12-07T02:45:08;11.35;;;5.25;;
50549;SDS011;36505;52.512;13.460;2022-12-07T02:47:37;8.88;;;4.65;;
50549;SDS011;36505;52.512;13.460;2022-12-07T02:50:06;7.18;;;4.43;;
50549;SDS011;36505;52.512;13.460;2022-12-07T02:52:33;8.73;;;5.13;;
50549;SDS011;36505;52.512;13.460;2022-12-07T02:54:58;8.93;;;4.80;;
50549;SDS011;36505;52.512;13.460;2022-12-07T03:02:39;7.95;;;5.00;;
50549;SDS011;36505;52.512;13.460;2022-12-07T03:13:22;8.90;;;5.05;;
50549;SDS011;36505;52.512;13.460;2022-12-07T03:15:57;9.73;;;5.55;;
50549;SDS011;36505;52.512;13.460;2022-12-07T03:18:26;9.00;;;5.40;;
50549;SDS011;36505;52.512;13.460;2022-12-07T03:20:57;7.75;;;4.47;;
50549;SDS011;36505;52.512;13.460;2022-12-07T03:23:26;10.13;;;5.70;;
50549;SDS011;36505;52.512;13.460;2022-12-07T03:25:55;10.88;;;4.93;;
50549;SDS011;36505;52.512;13.460;2022-12-07T03:28:24;12.15;;;5.43;;
50549;SDS011;36505;52.512;13.460;2022-12-07T03:30:56;7.47;;;4.70;;
50549;SDS011;36505;52.512;13.460;2022-12-07T03:33:24;8.35;;;5.03;;
50549;SDS011;36505;52.512;13.460;2022-12-07T03:36:05;11.32;;;5.63;;
50549;SDS011;36505;52.512;13.460;2022-12-07T03:38:40;11.90;;;5.85;;
50549;SDS011;36505;52.512;13.460;2022-12-07T03:41:14;12.75;;;6.45;;
50549;SDS011;36505;52.512;13.460;2022-12-07T03:43:43;9.73;;;5.55;;
50549;SDS011;36505;52.512;13.460;2022-12-07T03:56:41;9.73;;;5.43;;
50549;SDS011;36505;52.512;13.460;2022-12-07T03:59:09;8.40;;;5.22;;
50549;SDS011;36505;52.512;13.460;2022-12-07T04:01:36;11.13;;;5.93;;
50549;SDS011;36505;52.512;13.460;2022-12-07T04:04:01;10.95;;;6.07;;
50549;SDS011;36505;52.512;13.460;2022-12-07T04:06:27;10.65;;;5.55;;
50549;SDS011;36505;52.512;13.460;2022-12-07T04:08:52;11.65;;;6.25;;
50549;SDS011;36505;52.512;13.460;2022-12-07T04:11:17;13.75;;;6.90;;
50549;SDS011;36505;52.512;13.460;2022-12-07T04:13:43;15.82;;;6.93;;
50549;SDS011;36505;52.512;13.460;2022-12-07T04:16:26;12.88;;;6.72;;
50549;SDS011;36505;52.512;13.460;2022-12-07T04:18:52;11.98;;;6.65;;
50549;SDS011;36505;52.512;13.460;2022-12-07T04:21:17;12.80;;;6.72;;
50549;SDS011;36505;52.512;13.460;2022-12-07T04:23:42;11.38;;;6.45;;
50549;SDS011;36505;52.512;13.460;2022-12-07T04:26:08;11.20;;;6.05;;
50549;SDS011;36505;52.512;13.460;2022-12-07T04:28:33;12.63;;;7.15;;
50549;SDS011;36505;52.512;13.460;2022-12-07T04:30:59;13.25;;;6.65;;
50549;SDS011;36505;52.512;13.460;2022-12-07T04:33:24;13.60;;;6.75;;
50549;SDS011;36505;52.512;13.460;2022-12-07T04:35:49;14.20;;;7.28;;
50549;SDS011;36505;52.512;13.460;2022-12-07T04:38:15;16.75;;;8.02;;
50549;SDS011;36505;52.512;13.460;2022-12-07T04:40:40;15.43;;;7.20;;
50549;SDS011;36505;52.512;13.460;2022-12-07T04:43:05;13.75;;;7.28;;
50549;SDS011;36505;52.512;13.460;2022-12-07T04:45:31;14.07;;;7.68;;
50549;SDS011;36505;52.512;13.460;2022-12-07T04:47:56;16.52;;;7.68;;
50549;SDS011;36505;52.512;13.460;2022-12-07T04:50:21;15.07;;;8.55;;
50549;SDS011;36505;52.512;13.460;2022-12-07T04:52:47;17.55;;;8.60;;
50549;SDS011;36505;52.512;13.460;2022-12-07T04:55:12;16.83;;;9.13;;
50549;SDS011;36505;52.512;13.460;2022-12-07T04:57:38;17.67;;;8.82;;
50549;SDS011;36505;52.512;13.460;2022-12-07T05:00:03;17.75;;;9.38;;
50549;SDS011;36505;52.512;13.460;2022-12-07T05:02:29;22.92;;;10.32;;
50549;SDS011;36505;52.512;13.460;2022-12-07T05:04:54;27.83;;;12.88;;
50549;SDS011;36505;52.512;13.460;2022-12-07T05:07:20;24.38;;;10.35;;
50549;SDS011;36505;52.512;13.460;2022-12-07T05:09:45;24.60;;;10.63;;
50549;SDS011;36505;52.512;13.460;2022-12-07T05:12:10;19.92;;;10.77;;
50549;SDS011;36505;52.512;13.460;2022-12-07T05:14:36;20.50;;;10.90;;
50549;SDS011;36505;52.512;13.460;2022-12-07T05:17:01;20.90;;;10.40;;
50549;SDS011;36505;52.512;13.460;2022-12-07T05:19:26;17.40;;;9.20;;
50549;SDS011;36505;52.512;13.460;2022-12-07T05:21:53;19.30;;;10.95;;
50549;SDS011;36505;52.512;13.460;2022-12-07T05:24:18;21.65;;;10.57;;
50549;SDS011;36505;52.512;13.460;2022-12-07T05:26:44;23.25;;;11.32;;
50549;SDS011;36505;52.512;13.460;2022-12-07T05:29:11;21.88;;;11.35;;
50549;SDS011;36505;52.512;13.460;2022-12-07T05:31:37;25.85;;;10.05;;
50549;SDS011;36505;52.512;13.460;2022-12-07T05:34:03;20.38;;;10.82;;
50549;SDS011;36505;52.512;13.460;2022-12-07T05:36:28;20.88;;;9.90;;
50549;SDS011;36505;52.512;13.460;2022-12-07T05:38:56;22.08;;;11.32;;
50549;SDS011;36505;52.512;13.460;2022-12-07T05:41:21;22.90;;;11.65;;
50549;SDS011;36505;52.512;13.460;2022-12-07T05:44:05;23.58;;;12.60;;
50549;SDS011;36505;52.512;13.460;2022-12-07T05:46:30;22.20;;;11.68;;
50549;SDS011;36505;52.512;13.460;2022-12-07T05:48:56;26.45;;;12.18;;
50549;SDS011;36505;52.512;13.460;2022-12-07T05:51:21;20.80;;;10.93;;
50549;SDS011;36505;52.512;13.460;2022-12-07T05:53:47;26.55;;;12.50;;
50549;SDS011;36505;52.512;13.460;2022-12-07T05:56:12;21.60;;;11.13;;
50549;SDS011;36505;52.512;13.460;2022-12-07T05:58:38;25.02;;;11.55;;
50549;SDS011;36505;52.512;13.460;2022-12-07T06:01:22;24.60;;;12.80;;
50549;SDS011;36505;52.512;13.460;2022-12-07T06:03:47;25.08;;;12.23;;
50549;SDS011;36505;52.512;13.460;2022-12-07T06:06:13;23.70;;;12.68;;
50549;SDS011;36505;52.512;13.460;2022-12-07T06:08:38;31.10;;;13.30;;
50549;SDS011;36505;52.512;13.460;2022-12-07T06:11:03;28.00;;;13.02;;
50549;SDS011;36505;52.512;13.460;2022-12-07T06:13:47;30.65;;;13.00;;
50549;SDS011;36505;52.512;13.460;2022-12-07T06:16:13;25.40;;;12.82;;
50549;SDS011;36505;52.512;13.460;2022-12-07T06:18:38;24.45;;;12.95;;
50549;SDS011;36505;52.512;13.460;2022-12-07T06:21:03;24.45;;;12.27;;
50549;SDS011;36505;52.512;13.460;2022-12-07T06:23:29;27.80;;;13.52;;
50549;SDS011;36505;52.512;13.460;2022-12-07T06:25:54;27.40;;;13.27;;
50549;SDS011;36505;52.512;13.460;2022-12-07T06:28:19;26.40;;;12.70;;
50549;SDS011;36505;52.512;13.460;2022-12-07T06:30:45;28.67;;;13.38;;
50549;SDS011;36505;52.512;13.460;2022-12-07T06:33:10;28.55;;;13.15;;
50549;SDS011;36505;52.512;13.460;2022-12-07T06:35:35;25.65;;;13.10;;
50549;SDS011;36505;52.512;13.460;2022-12-07T06:38:03;29.25;;;12.32;;
50549;SDS011;36505;52.512;13.460;2022-12-07T06:40:29;24.65;;;11.88;;
50549;SDS011;36505;52.512;13.460;2022-12-07T06:42:54;26.63;;;12.18;;
50549;SDS011;36505;52.512;13.460;2022-12-07T06:45:20;28.23;;;13.23;;
50549;SDS011;36505;52.512;13.460;2022-12-07T06:47:45;23.73;;;11.27;;
50549;SDS011;36505;52.512;13.460;2022-12-07T06:50:10;26.42;;;11.52;;
50549;SDS011;36505;52.512;13.460;2022-12-07T06:52:37;23.95;;;12.23;;
50549;SDS011;36505;52.512;13.460;2022-12-07T06:55:02;22.75;;;11.73;;
50549;SDS011;36505;52.512;13.460;2022-12-07T06:57:28;24.10;;;12.25;;
50549;SDS011;36505;52.512;13.460;2022-12-07T06:59:53;26.05;;;12.93;;
50549;SDS011;36505;52.512;13.460;2022-12-07T07:02:18;24.80;;;12.40;;
50549;SDS011;36505;52.512;13.460;2022-12-07T07:04:44;24.85;;;11.68;;
50549;SDS011;36505;52.512;13.460;2022-12-07T07:07:09;24.77;;;12.02;;
50549;SDS011;36505;52.512;13.460;2022-12-07T07:09:35;20.08;;;11.43;;
50549;SDS011;36505;52.512;13.460;2022-12-07T07:12:00;23.95;;;12.98;;
50549;SDS011;36505;52.512;13.460;2022-12-07T07:14:25;33.30;;;12.32;;
50549;SDS011;36505;52.512;13.460;2022-12-07T07:16:51;29.90;;;14.20;;
50549;SDS011;36505;52.512;13.460;2022-12-07T07:19:16;25.08;;;13.45;;
50549;SDS011;36505;52.512;13.460;2022-12-07T07:21:42;27.20;;;12.90;;
50549;SDS011;36505;52.512;13.460;2022-12-07T07:24:07;31.73;;;13.68;;
50549;SDS011;36505;52.512;13.460;2022-12-07T07:26:32;27.05;;;13.90;;
50549;SDS011;36505;52.512;13.460;2022-12-07T07:29:00;30.52;;;14.88;;
50549;SDS011;36505;52.512;13.460;2022-12-07T07:31:26;29.73;;;13.02;;
50549;SDS011;36505;52.512;13.460;2022-12-07T07:33:51;24.67;;;13.55;;
50549;SDS011;36505;52.512;13.460;2022-12-07T07:36:17;30.80;;;14.00;;
50549;SDS011;36505;52.512;13.460;2022-12-07T07:38:43;26.05;;;13.07;;
50549;SDS011;36505;52.512;13.460;2022-12-07T07:41:08;32.50;;;15.05;;
50549;SDS011;36505;52.512;13.460;2022-12-07T07:43:33;26.88;;;12.80;;
50549;SDS011;36505;52.512;13.460;2022-12-07T07:45:59;21.80;;;11.50;;
50549;SDS011;36505;52.512;13.460;2022-12-07T07:48:24;27.70;;;12.50;;
50549;SDS011;36505;52.512;13.460;2022-12-07T07:50:59;25.73;;;11.00;;
50549;SDS011;36505;52.512;13.460;2022-12-07T07:53:32;20.13;;;10.82;;
50549;SDS011;36505;52.512;13.460;2022-12-07T07:55:57;20.50;;;10.25;;
50549;SDS011;36505;52.512;13.460;2022-12-07T07:58:23;23.58;;;11.23;;
50549;SDS011;36505;52.512;13.460;2022-12-07T08:00:49;20.58;;;9.77;;
50549;SDS011;36505;52.512;13.460;2022-12-07T08:03:14;16.35;;;9.55;;
50549;SDS011;36505;52.512;13.460;2022-12-07T08:05:40;21.67;;;10.35;;
50549;SDS011;36505;52.512;13.460;2022-12-07T08:08:05;16.55;;;7.93;;
50549;SDS011;36505;52.512;13.460;2022-12-07T08:10:31;17.58;;;9.18;;
50549;SDS011;36505;52.512;13.460;2022-12-07T08:12:59;17.10;;;8.63;;
50549;SDS011;36505;52.512;13.460;2022-12-07T08:15:38;16.77;;;7.85;;
50549;SDS011;36505;52.512;13.460;2022-12-07T08:18:05;15.93;;;8.07;;
50549;SDS011;36505;52.512;13.460;2022-12-07T08:20:31;17.98;;;7.97;;
50549;SDS011;36505;52.512;13.460;2022-12-07T08:22:58;17.30;;;8.00;;
50549;SDS011;36505;52.512;13.460;2022-12-07T08:25:23;16.70;;;7.70;;
50549;SDS011;36505;52.512;13.460;2022-12-07T08:27:49;17.45;;;6.80;;
50549;SDS011;36505;52.512;13.460;2022-12-07T08:30:16;11.63;;;6.95;;
50549;SDS011;36505;52.512;13.460;2022-12-07T08:32:41;16.42;;;7.05;;
50549;SDS011;36505;52.512;13.460;2022-12-07T08:35:08;13.05;;;6.65;;
50549;SDS011;36505;52.512;13.460;2022-12-07T08:37:34;10.88;;;6.30;;
50549;SDS011;36505;52.512;13.460;2022-12-07T08:39:59;13.15;;;5.88;;
50549;SDS011;36505;52.512;13.460;2022-12-07T08:42:25;12.70;;;6.25;;
50549;SDS011;36505;52.512;13.460;2022-12-07T08:44:54;10.05;;;6.40;;
50549;SDS011;36505;52.512;13.460;2022-12-07T08:47:20;17.40;;;6.25;;
50549;SDS011;36505;52.512;13.460;2022-12-07T08:49:46;10.77;;;6.63;;
50549;SDS011;36505;52.512;13.460;2022-12-07T08:52:14;10.38;;;6.45;;
50549;SDS011;36505;52.512;13.460;2022-12-07T08:54:41;9.00;;;5.35;;
50549;SDS011;36505;52.512;13.460;2022-12-07T08:57:07;10.32;;;5.00;;
50549;SDS011;36505;52.512;13.460;2022-12-07T08:59:34;8.98;;;4.63;;
50549;SDS011;36505;52.512;13.460;2022-12-07T09:02:01;6.47;;;3.83;;
50549;SDS011;36505;52.512;13.460;2022-12-07T09:04:27;7.47;;;3.42;;
50549;SDS011;36505;52.512;13.460;2022-12-07T09:06:53;11.05;;;4.35;;
50549;SDS011;36505;52.512;13.460;2022-12-07T09:09:20;7.90;;;3.78;;
50549;SDS011;36505;52.512;13.460;2022-12-07T09:11:45;7.80;;;3.45;;
50549;SDS011;36505;52.512;13.460;2022-12-07T09:14:11;5.57;;;3.40;;
50549;SDS011;36505;52.512;13.460;2022-12-07T09:16:37;7.93;;;3.13;;
50549;SDS011;36505;52.512;13.460;2022-12-07T09:19:03;4.15;;;2.75;;
50549;SDS011;36505;52.512;13.460;2022-12-07T09:21:28;6.53;;;3.10;;
50549;SDS011;36505;52.512;13.460;2022-12-07T09:23:54;8.88;;;3.03;;
50549;SDS011;36505;52.512;13.460;2022-12-07T09:26:19;6.78;;;2.75;;
50549;SDS011;36505;52.512;13.460;2022-12-07T09:28:44;6.25;;;3.55;;
50549;SDS011;36505;52.512;13.460;2022-12-07T09:31:10;5.65;;;2.85;;
50549;SDS011;36505;52.512;13.460;2022-12-07T09:33:35;5.72;;;2.58;;
50549;SDS011;36505;52.512;13.460;2022-12-07T09:36:01;4.72;;;2.30;;
50549;SDS011;36505;52.512;13.460;2022-12-07T09:38:28;4.68;;;1.60;;
50549;SDS011;36505;52.512;13.460;2022-12-07T09:40:54;4.47;;;2.00;;
50549;SDS011;36505;52.512;13.460;2022-12-07T09:43:21;11.95;;;2.45;;
50549;SDS011;36505;52.512;13.460;2022-12-07T09:45:50;2.78;;;1.98;;
50549;SDS011;36505;52.512;13.460;2022-12-07T09:48:19;3.72;;;2.15;;
50549;SDS011;36505;52.512;13.460;2022-12-07T09:50:47;6.28;;;2.15;;
50549;SDS011;36505;52.512;13.460;2022-12-07T09:53:15;5.40;;;2.75;;
50549;SDS011;36505;52.512;13.460;2022-12-07T09:55:47;3.97;;;2.45;;
50549;SDS011;36505;52.512;13.460;2022-12-07T09:58:23;5.50;;;2.65;;
50549;SDS011;36505;52.512;13.460;2022-12-07T10:00:55;5.13;;;3.20;;
50549;SDS011;36505;52.512;13.460;2022-12-07T10:03:23;9.13;;;3.25;;
50549;SDS011;36505;52.512;13.460;2022-12-07T10:05:50;5.78;;;3.25;;
50549;SDS011;36505;52.512;13.460;2022-12-07T10:08:17;5.13;;;1.85;;
50549;SDS011;36505;52.512;13.460;2022-12-07T10:10:42;4.45;;;2.60;;
50549;SDS011;36505;52.512;13.460;2022-12-07T10:13:13;3.78;;;2.15;;
50549;SDS011;36505;52.512;13.460;2022-12-07T10:15:45;10.77;;;3.70;;
50549;SDS011;36505;52.512;13.460;2022-12-07T10:18:34;4.20;;;2.10;;
50549;SDS011;36505;52.512;13.460;2022-12-07T10:21:03;6.20;;;2.53;;
50549;SDS011;36505;52.512;13.460;2022-12-07T10:23:42;8.43;;;2.15;;
50549;SDS011;36505;52.512;13.460;2022-12-07T10:26:26;5.20;;;2.60;;
50549;SDS011;36505;52.512;13.460;2022-12-07T10:28:54;5.60;;;2.30;;
50549;SDS011;36505;52.512;13.460;2022-12-07T10:31:23;7.32;;;2.10;;
50549;SDS011;36505;52.512;13.460;2022-12-07T10:33:59;3.63;;;2.28;;
50549;SDS011;36505;52.512;13.460;2022-12-07T10:36:29;3.97;;;2.10;;
50549;SDS011;36505;52.512;13.460;2022-12-07T10:41:55;4.68;;;2.50;;
50549;SDS011;36505;52.512;13.460;2022-12-07T10:44:22;5.57;;;2.20;;
50549;SDS011;36505;52.512;13.460;2022-12-07T10:55:47;3.65;;;2.20;;
50549;SDS011;36505;52.512;13.460;2022-12-07T11:10:15;4.45;;;2.20;;
50549;SDS011;36505;52.512;13.460;2022-12-07T11:13:00;7.43;;;2.70;;
50549;SDS011;36505;52.512;13.460;2022-12-07T11:15:38;3.85;;;2.03;;
50549;SDS011;36505;52.512;13.460;2022-12-07T11:31:49;4.90;;;3.22;;
50549;SDS011;36505;52.512;13.460;2022-12-07T11:36:45;7.20;;;3.67;;
50549;SDS011;36505;52.512;13.460;2022-12-07T11:41:43;5.75;;;2.45;;
50549;SDS011;36505;52.512;13.460;2022-12-07T11:55:16;6.07;;;3.20;;
50549;SDS011;36505;52.512;13.460;2022-12-07T11:57:51;4.03;;;2.92;;
50549;SDS011;36505;52.512;13.460;2022-12-07T12:00:26;8.85;;;3.50;;
50549;SDS011;36505;52.512;13.460;2022-12-07T12:05:27;8.00;;;3.25;;
50549;SDS011;36505;52.512;13.460;2022-12-07T12:21:55;14.68;;;5.32;;
50549;SDS011;36505;52.512;13.460;2022-12-07T12:24:26;10.40;;;3.83;;
50549;SDS011;36505;52.512;13.460;2022-12-07T12:27:01;10.73;;;3.92;;
50549;SDS011;36505;52.512;13.460;2022-12-07T12:29:35;6.30;;;3.78;;
50549;SDS011;36505;52.512;13.460;2022-12-07T12:32:04;13.30;;;4.97;;
50549;SDS011;36505;52.512;13.460;2022-12-07T12:43:27;6.68;;;2.83;;
50549;SDS011;36505;52.512;13.460;2022-12-07T12:51:44;8.52;;;2.22;;
50549;SDS011;36505;52.512;13.460;2022-12-07T12:59:29;6.03;;;2.35;;
50549;SDS011;36505;52.512;13.460;2022-12-07T13:23:54;8.23;;;2.45;;
50549;SDS011;36505;52.512;13.460;2022-12-07T13:28:49;17.35;;;4.32;;
50549;SDS011;36505;52.512;13.460;2022-12-07T13:33:45;9.98;;;2.38;;
50549;SDS011;36505;52.512;13.460;2022-12-07T13:36:14;11.25;;;3.45;;
50549;SDS011;36505;52.512;13.460;2022-12-07T13:38:48;9.68;;;2.80;;
50549;SDS011;36505;52.512;13.460;2022-12-07T13:41:16;9.73;;;2.80;;
50549;SDS011;36505;52.512;13.460;2022-12-07T13:43:48;10.27;;;2.95;;
50549;SDS011;36505;52.512;13.460;2022-12-07T13:46:14;5.35;;;2.65;;
50549;SDS011;36505;52.512;13.460;2022-12-07T13:48:48;6.47;;;2.38;;
50549;SDS011;36505;52.512;13.460;2022-12-07T13:54:01;6.82;;;2.13;;
50549;SDS011;36505;52.512;13.460;2022-12-07T13:56:35;5.68;;;1.90;;
50549;SDS011;36505;52.512;13.460;2022-12-07T13:59:01;11.65;;;2.65;;
50549;SDS011;36505;52.512;13.460;2022-12-07T14:01:27;11.40;;;3.78;;
50549;SDS011;36505;52.512;13.460;2022-12-07T14:03:55;7.75;;;3.85;;
50549;SDS011;36505;52.512;13.460;2022-12-07T14:06:47;8.38;;;2.92;;
50549;SDS011;36505;52.512;13.460;2022-12-07T14:09:24;7.28;;;2.47;;
50549;SDS011;36505;52.512;13.460;2022-12-07T14:11:55;6.70;;;2.45;;
50549;SDS011;36505;52.512;13.460;2022-12-07T14:14:29;6.38;;;2.03;;
50549;SDS011;36505;52.512;13.460;2022-12-07T14:20:00;9.82;;;3.88;;
50549;SDS011;36505;52.512;13.460;2022-12-07T14:25:01;9.43;;;2.45;;
50549;SDS011;36505;52.512;13.460;2022-12-07T14:27:39;13.32;;;3.05;;
50549;SDS011;36505;52.512;13.460;2022-12-07T14:30:16;8.00;;;3.53;;
50549;SDS011;36505;52.512;13.460;2022-12-07T14:32:43;5.88;;;2.30;;
50549;SDS011;36505;52.512;13.460;2022-12-07T14:35:29;7.85;;;3.40;;
50549;SDS011;36505;52.512;13.460;2022-12-07T14:37:56;5.72;;;2.00;;
50549;SDS011;36505;52.512;13.460;2022-12-07T14:40:25;6.63;;;2.28;;
50549;SDS011;36505;52.512;13.460;2022-12-07T14:43:05;5.68;;;2.92;;
50549;SDS011;36505;52.512;13.460;2022-12-07T14:45:35;9.65;;;2.67;;
50549;SDS011;36505;52.512;13.460;2022-12-07T14:48:01;6.88;;;2.17;;
50549;SDS011;36505;52.512;13.460;2022-12-07T14:50:26;7.40;;;2.75;;
50549;SDS011;36505;52.512;13.460;2022-12-07T14:52:55;8.45;;;2.30;;
50549;SDS011;36505;52.512;13.460;2022-12-07T14:55:25;8.13;;;2.47;;
50549;SDS011;36505;52.512;13.460;2022-12-07T14:57:52;9.45;;;2.97;;
50549;SDS011;36505;52.512;13.460;2022-12-07T15:00:19;14.38;;;4.78;;
50549;SDS011;36505;52.512;13.460;2022-12-07T15:02:46;12.57;;;4.47;;
50549;SDS011;36505;52.512;13.460;2022-12-07T15:05:13;10.13;;;3.75;;
50549;SDS011;36505;52.512;13.460;2022-12-07T15:07:39;8.82;;;2.55;;
50549;SDS011;36505;52.512;13.460;2022-12-07T15:10:05;9.48;;;2.80;;
50549;SDS011;36505;52.512;13.460;2022-12-07T15:12:37;13.07;;;3.92;;
50549;SDS011;36505;52.512;13.460;2022-12-07T15:15:03;5.05;;;2.90;;
50549;SDS011;36505;52.512;13.460;2022-12-07T15:17:29;4.90;;;2.13;;
50549;SDS011;36505;52.512;13.460;2022-12-07T15:19:54;12.45;;;3.75;;
50549;SDS011;36505;52.512;13.460;2022-12-07T15:22:19;10.65;;;2.92;;
50549;SDS011;36505;52.512;13.460;2022-12-07T15:24:44;7.05;;;2.95;;
50549;SDS011;36505;52.512;13.460;2022-12-07T15:27:10;8.25;;;3.50;;
50549;SDS011;36505;52.512;13.460;2022-12-07T15:29:35;12.27;;;3.17;;
50549;SDS011;36505;52.512;13.460;2022-12-07T15:32:00;7.75;;;3.05;;
50549;SDS011;36505;52.512;13.460;2022-12-07T15:34:26;11.18;;;2.83;;
50549;SDS011;36505;52.512;13.460;2022-12-07T15:36:53;17.17;;;2.78;;
50549;SDS011;36505;52.512;13.460;2022-12-07T15:39:19;8.05;;;3.15;;
50549;SDS011;36505;52.512;13.460;2022-12-07T15:41:44;11.98;;;3.03;;
50549;SDS011;36505;52.512;13.460;2022-12-07T15:44:11;7.15;;;2.80;;
50549;SDS011;36505;52.512;13.460;2022-12-07T15:46:56;11.05;;;4.15;;
50549;SDS011;36505;52.512;13.460;2022-12-07T15:49:21;10.18;;;2.85;;
50549;SDS011;36505;52.512;13.460;2022-12-07T15:51:46;12.88;;;4.47;;
50549;SDS011;36505;52.512;13.460;2022-12-07T15:54:13;10.55;;;4.03;;
50549;SDS011;36505;52.512;13.460;2022-12-07T15:56:43;7.00;;;2.92;;
50549;SDS011;36505;52.512;13.460;2022-12-07T15:59:08;16.40;;;3.63;;
50549;SDS011;36505;52.512;13.460;2022-12-07T16:01:34;8.15;;;3.47;;
50549;SDS011;36505;52.512;13.460;2022-12-07T16:03:59;6.45;;;2.40;;
50549;SDS011;36505;52.512;13.460;2022-12-07T16:06:24;16.48;;;2.88;;
50549;SDS011;36505;52.512;13.460;2022-12-07T16:08:50;6.85;;;2.20;;
50549;SDS011;36505;52.512;13.460;2022-12-07T16:11:15;7.80;;;2.42;;
50549;SDS011;36505;52.512;13.460;2022-12-07T16:13:41;9.05;;;2.30;;
50549;SDS011;36505;52.512;13.460;2022-12-07T16:16:07;9.35;;;2.60;;
50549;SDS011;36505;52.512;13.460;2022-12-07T16:18:35;6.97;;;2.92;;
50549;SDS011;36505;52.512;13.460;2022-12-07T16:21:00;7.90;;;2.90;;
50549;SDS011;36505;52.512;13.460;2022-12-07T16:23:26;13.18;;;4.15;;
50549;SDS011;36505;52.512;13.460;2022-12-07T16:25:52;5.93;;;2.33;;
50549;SDS011;36505;52.512;13.460;2022-12-07T16:28:17;11.02;;;2.60;;
50549;SDS011;36505;52.512;13.460;2022-12-07T16:30:43;9.25;;;2.30;;
50549;SDS011;36505;52.512;13.460;2022-12-07T16:33:09;6.38;;;2.30;;
50549;SDS011;36505;52.512;13.460;2022-12-07T16:35:37;11.52;;;2.95;;
50549;SDS011;36505;52.512;13.460;2022-12-07T16:38:05;5.00;;;1.75;;
50549;SDS011;36505;52.512;13.460;2022-12-07T16:40:31;6.43;;;1.92;;
50549;SDS011;36505;52.512;13.460;2022-12-07T16:42:56;12.35;;;2.60;;
50549;SDS011;36505;52.512;13.460;2022-12-07T16:45:22;7.88;;;2.20;;
50549;SDS011;36505;52.512;13.460;2022-12-07T16:47:47;4.05;;;2.65;;
50549;SDS011;36505;52.512;13.460;2022-12-07T16:50:12;5.53;;;2.72;;
50549;SDS011;36505;52.512;13.460;2022-12-07T16:52:38;6.68;;;3.03;;
50549;SDS011;36505;52.512;13.460;2022-12-07T16:55:03;12.85;;;2.60;;
50549;SDS011;36505;52.512;13.460;2022-12-07T16:57:29;6.82;;;2.20;;
50549;SDS011;36505;52.512;13.460;2022-12-07T16:59:56;13.50;;;3.90;;
50549;SDS011;36505;52.512;13.460;2022-12-07T17:02:22;5.82;;;3.05;;
50549;SDS011;36505;52.512;13.460;2022-12-07T17:04:47;9.27;;;3.35;;
50549;SDS011;36505;52.512;13.460;2022-12-07T17:07:12;5.18;;;2.47;;
50549;SDS011;36505;52.512;13.460;2022-12-07T17:09:38;7.72;;;2.30;;
50549;SDS011;36505;52.512;13.460;2022-12-07T17:12:03;11.60;;;2.05;;
50549;SDS011;36505;52.512;13.460;2022-12-07T17:14:31;15.07;;;3.03;;
50549;SDS011;36505;52.512;13.460;2022-12-07T17:17:15;9.95;;;3.08;;
50549;SDS011;36505;52.512;13.460;2022-12-07T17:19:40;8.32;;;3.10;;
50549;SDS011;36505;52.512;13.460;2022-12-07T17:22:05;6.68;;;3.00;;